createdAt,value
2023-09-05T00:16:56.374Z,102266.72
2023-09-05T00:19:24.159Z,102263.91
2023-09-05T00:21:51.977Z,102265.53
2023-09-05T00:24:25.813Z,102259.44
2023-09-05T00:26:53.758Z,102270.75
2023-09-05T00:29:21.975Z,102260.28
2023-09-05T00:31:49.966Z,102265.09
2023-09-05T00:34:19.408Z,102257.44
2023-09-05T00:36:48.777Z,102255.44
2023-09-05T00:39:17.476Z,102260.28
2023-09-05T00:41:45.613Z,102265.09
2023-09-05T00:44:15.187Z,102253.81
2023-09-05T00:46:44.328Z,102255.44
2023-09-05T00:49:14.170Z,102244.13
2023-09-05T00:51:44.387Z,102249.78
2023-09-05T00:54:13.197Z,102244.94
2023-09-05T00:56:40.987Z,102240.13
2023-09-05T00:59:09.106Z,102232.84
2023-09-05T01:16:11.310Z,102228.81
2023-09-05T01:18:41.389Z,102219.53
2023-09-05T01:21:16.204Z,102217.53
2023-09-05T01:23:46.594Z,102217.53
2023-09-05T01:26:16.062Z,102219.16
2023-09-05T01:28:45.131Z,102211.88
2023-09-05T01:48:51.360Z,102203.41
2023-09-05T01:51:20.816Z,102206.22
2023-09-05T01:53:48.546Z,102211.88
2023-09-05T01:56:16.289Z,102200.56
2023-09-05T01:58:44.087Z,102199.75
2023-09-05T02:15:59.812Z,102173.97
2023-09-05T02:18:27.630Z,102173.97
2023-09-05T02:20:59.494Z,102167.16
2023-09-05T02:23:27.526Z,102164.34
2023-09-05T02:25:59.745Z,102164.34
2023-09-05T02:28:27.905Z,102164.34
2023-09-05T02:45:57.608Z,102161.94
2023-09-05T02:48:26.893Z,102159.13
2023-09-05T02:51:04.771Z,102154.66
2023-09-05T02:53:32.551Z,102155.84
2023-09-05T02:56:00.304Z,102167.59
2023-09-05T02:58:29.397Z,102159.13
2023-09-05T03:18:26.954Z,102147.81
2023-09-05T03:20:54.786Z,102154.28
2023-09-05T03:23:23.148Z,102152.28
2023-09-05T03:25:52.207Z,102157.94
2023-09-05T03:28:20.740Z,102151.47
2023-09-05T03:30:48.735Z,102150.66
2023-09-05T03:33:16.590Z,102151.47
2023-09-05T03:35:46.649Z,102150.66
2023-09-05T03:38:14.507Z,102145.00
2023-09-05T03:40:42.337Z,102146.63
2023-09-05T03:43:10.336Z,102140.97
2023-09-05T03:45:38.100Z,102146.63
2023-09-05T03:48:06.140Z,102150.66
2023-09-05T03:50:33.992Z,102154.28
2023-09-05T03:53:03.084Z,102156.28
2023-09-05T03:55:31.225Z,102157.50
2023-09-05T03:57:59.001Z,102161.13
2023-09-05T04:21:01.378Z,102181.72
2023-09-05T04:23:29.389Z,102180.09
2023-09-05T04:25:58.820Z,102188.56
2023-09-05T04:28:27.550Z,102182.91
2023-09-05T04:30:57.575Z,102189.75
2023-09-05T04:33:27.202Z,102184.91
2023-09-05T04:35:55.390Z,102189.75
2023-09-05T04:38:24.611Z,102188.56
2023-09-05T04:40:52.192Z,102192.56
2023-09-05T04:43:19.834Z,102186.94
2023-09-05T04:45:54.009Z,102199.84
2023-09-05T04:48:21.831Z,102195.41
2023-09-05T04:50:49.553Z,102197.41
2023-09-05T04:53:17.188Z,102199.03
2023-09-05T04:55:46.389Z,102203.88
2023-09-05T04:58:14.125Z,102204.69
2023-09-05T05:00:42.107Z,102198.22
2023-09-05T05:03:09.986Z,102202.22
2023-09-05T05:05:38.031Z,102204.69
2023-09-05T05:08:05.991Z,102197.41
2023-09-05T05:10:35.066Z,102201.06
2023-09-05T05:13:04.761Z,102202.72
2023-09-05T05:15:32.391Z,102201.44
2023-09-05T05:18:00.386Z,102194.00
2023-09-05T05:20:28.070Z,102197.25
2023-09-05T05:22:55.822Z,102205.94
2023-09-05T05:25:23.617Z,102202.09
2023-09-05T05:27:52.802Z,102200.81
2023-09-05T05:30:21.984Z,102190.00
2023-09-05T05:32:49.830Z,102186.81
2023-09-05T05:35:17.645Z,102187.53
2023-09-05T05:37:45.334Z,102178.72
2023-09-05T05:40:14.374Z,102176.72
2023-09-05T05:42:42.356Z,102168.06
2023-09-05T05:45:10.523Z,102177.94
2023-09-05T05:47:39.565Z,102178.44
2023-09-05T05:50:07.787Z,102164.56
2023-09-05T05:52:35.517Z,102171.16
2023-09-05T05:55:03.226Z,102173.97
2023-09-05T05:57:30.844Z,102179.59
2023-09-05T05:59:58.452Z,102187.81
2023-09-05T06:02:26.047Z,102185.94
2023-09-05T06:04:55.062Z,102185.59
2023-09-05T06:07:22.722Z,102189.22
2023-09-05T06:09:50.382Z,102187.09
2023-09-05T06:12:18.021Z,102184.28
2023-09-05T06:14:45.621Z,102183.59
2023-09-05T06:17:13.291Z,102185.25
2023-09-05T06:19:42.685Z,102182.88
2023-09-05T06:22:11.832Z,102185.25
2023-09-05T06:24:39.565Z,102182.19
2023-09-05T06:27:07.235Z,102180.63
2023-09-05T06:29:34.895Z,102177.47
2023-09-05T06:32:02.562Z,102179.13
2023-09-05T06:34:30.240Z,102178.63
2023-09-05T06:36:57.942Z,102176.75
2023-09-05T06:39:27.001Z,102177.69
2023-09-05T06:41:55.907Z,102181.69
2023-09-05T06:44:31.605Z,102181.22
2023-09-05T06:46:59.221Z,102181.34
2023-09-05T06:49:26.869Z,102178.16
2023-09-05T06:51:54.510Z,102184.72
2023-09-05T06:54:22.172Z,102179.91
2023-09-05T06:56:51.191Z,102184.34
2023-09-05T06:59:19.166Z,102183.75
2023-09-05T07:01:47.340Z,102178.94
2023-09-05T07:04:15.440Z,102179.97
2023-09-05T07:06:43.208Z,102184.22
2023-09-05T07:09:10.891Z,102185.84
2023-09-05T07:11:38.931Z,102182.78
2023-09-05T07:14:08.855Z,102173.88
2023-09-05T07:16:36.506Z,102184.41
2023-09-05T07:19:04.366Z,102187.72
2023-09-05T07:21:32.027Z,102195.91
2023-09-05T07:23:59.712Z,102206.44
2023-09-05T07:26:27.459Z,102208.09
2023-09-05T07:28:55.592Z,102209.38
2023-09-05T07:31:27.493Z,102202.69
2023-09-05T07:33:55.227Z,102197.22
2023-09-05T07:36:22.857Z,102200.50
2023-09-05T07:38:50.490Z,102204.50
2023-09-05T07:41:18.136Z,102205.50
2023-09-05T07:43:45.759Z,102202.81
2023-09-05T07:46:14.807Z,102207.63
2023-09-05T07:48:44.267Z,102210.19
2023-09-05T07:51:12.517Z,102203.38
2023-09-05T07:53:40.237Z,102207.47
2023-09-05T07:56:08.470Z,102206.75
2023-09-05T07:58:36.158Z,102197.09
2023-09-05T08:01:03.939Z,102197.19
2023-09-05T08:03:31.622Z,102188.38
2023-09-05T08:06:00.784Z,102195.75
2023-09-05T08:08:28.755Z,102186.47
2023-09-05T08:10:56.762Z,102189.41
2023-09-05T08:13:24.479Z,102191.84
2023-09-05T08:15:52.571Z,102199.94
2023-09-05T08:18:20.415Z,102189.47
2023-09-05T08:20:48.406Z,102192.78
2023-09-05T08:23:17.469Z,102190.44
2023-09-05T08:25:52.293Z,102198.88
2023-09-05T08:28:20.651Z,102189.72
2023-09-05T08:30:48.498Z,102192.97
2023-09-05T08:33:16.357Z,102186.53
2023-09-05T08:35:44.068Z,102190.59
2023-09-05T08:38:11.713Z,102191.09
2023-09-05T08:40:42.465Z,102184.25
2023-09-05T08:43:10.482Z,102180.25
2023-09-05T08:45:38.890Z,102184.69
2023-09-05T08:48:07.179Z,102179.06
2023-09-05T08:50:37.672Z,102180.34
2023-09-05T08:53:11.644Z,102173.88
2023-09-05T08:55:42.470Z,102176.34
2023-09-05T08:58:11.806Z,102173.50
2023-09-05T09:00:39.662Z,102177.59
2023-09-05T09:03:07.712Z,102173.13
2023-09-05T09:05:36.809Z,102167.13
2023-09-05T09:08:04.573Z,102165.16
2023-09-05T09:10:32.304Z,102164.78
2023-09-05T09:15:53.696Z,102161.59
2023-09-05T09:18:22.435Z,102166.03
2023-09-05T09:20:51.587Z,102168.84
2023-09-05T09:23:26.297Z,102163.69
2023-09-05T09:25:55.901Z,102159.69
2023-09-05T09:28:25.088Z,102160.50
2023-09-05T09:30:58.562Z,102151.66
2023-09-05T09:33:27.372Z,102151.66
2023-09-05T09:36:08.021Z,102152.94
2023-09-05T09:38:35.825Z,102148.50
2023-09-05T09:41:05.095Z,102150.94
2023-09-05T09:43:33.313Z,102150.94
2023-09-05T09:46:05.160Z,102142.91
2023-09-05T09:48:35.228Z,102138.91
2023-09-05T09:51:05.582Z,102150.19
2023-09-05T09:53:37.805Z,102134.91
2023-09-05T09:56:11.103Z,102142.19
2023-09-05T09:58:41.512Z,102130.91
2023-09-05T10:01:12.530Z,102135.34
2023-09-05T10:03:42.123Z,102118.84
2023-09-05T10:06:10.529Z,102114.84
2023-09-05T10:08:42.697Z,102114.84
2023-09-05T10:11:13.364Z,102116.50
2023-09-05T10:13:42.509Z,102116.94
2023-09-05T10:16:16.344Z,102114.13
2023-09-05T10:18:46.178Z,102113.75
2023-09-05T10:21:15.730Z,102119.06
2023-09-05T10:23:43.612Z,102115.03
2023-09-05T10:26:13.903Z,102111.03
2023-09-05T10:28:43.546Z,102106.19
2023-09-05T10:31:14.959Z,102100.94
2023-09-05T10:33:46.762Z,102096.53
2023-09-05T10:36:34.041Z,102096.53
2023-09-05T10:39:02.510Z,102104.66
2023-09-05T10:41:37.665Z,102085.72
2023-09-05T10:44:05.667Z,102092.97
2023-09-05T10:46:34.803Z,102079.69
2023-09-05T10:49:11.628Z,102071.22
2023-09-05T10:52:08.490Z,102077.31
2023-09-05T10:54:36.188Z,102072.47
2023-09-05T10:57:04.681Z,102067.63
2023-09-05T10:59:32.419Z,102066.47
2023-09-05T11:02:04.421Z,102068.09
2023-09-05T11:04:33.223Z,102055.63
2023-09-05T11:07:04.450Z,102055.63
2023-09-05T11:09:41.532Z,102059.25
2023-09-05T11:12:10.501Z,102058.06
2023-09-05T11:14:38.445Z,102052.06
2023-09-05T11:17:09.950Z,102059.34
2023-09-05T11:19:39.239Z,102059.34
2023-09-05T11:22:09.042Z,102046.03
2023-09-05T11:24:36.822Z,102048.06
2023-09-05T11:27:07.774Z,102049.69
2023-09-05T11:29:36.082Z,102045.66
2023-09-05T11:32:04.710Z,102050.13
2023-09-05T11:34:35.020Z,102046.94
2023-09-05T11:37:02.790Z,102041.28
2023-09-05T11:39:30.576Z,102042.94
2023-09-05T11:41:59.498Z,102048.56
2023-09-05T11:44:34.120Z,102063.94
2023-09-05T11:47:02.564Z,102042.53
2023-09-05T11:49:31.662Z,102040.16
2023-09-05T11:52:02.282Z,102030.88
2023-09-05T11:54:30.474Z,102034.50
2023-09-05T11:56:58.726Z,102029.31
2023-09-05T11:59:26.887Z,102034.97
2023-09-05T12:01:54.752Z,102039.91
2023-09-05T12:04:23.775Z,102031.00
2023-09-05T12:06:51.654Z,102036.72
2023-09-05T12:09:22.187Z,102032.69
2023-09-05T12:11:50.188Z,102019.78
2023-09-05T12:14:21.319Z,102025.47
2023-09-05T12:16:49.546Z,102031.13
2023-09-05T12:19:19.152Z,102027.94
2023-09-05T12:21:47.792Z,102024.75
2023-09-05T12:24:19.598Z,102023.94
2023-09-05T12:26:50.790Z,102014.25
2023-09-05T12:29:22.931Z,102009.44
2023-09-05T12:31:52.076Z,102013.50
2023-09-05T12:34:20.439Z,102010.75
2023-09-05T12:36:48.395Z,101999.84
2023-09-05T12:39:16.233Z,101999.03
2023-09-05T12:41:44.119Z,101999.44
2023-09-05T12:44:13.209Z,101992.19
2023-09-05T12:46:42.540Z,101988.97
2023-09-05T12:49:11.292Z,101989.78
2023-09-05T12:51:39.006Z,101982.13
2023-09-05T12:54:06.870Z,101974.47
2023-09-05T12:56:34.563Z,101983.41
2023-09-05T12:59:03.065Z,101969.28
2023-09-05T13:01:32.264Z,101969.28
2023-09-05T13:04:00.126Z,101974.16
2023-09-05T13:06:28.121Z,101970.59
2023-09-05T13:08:55.995Z,101973.44
2023-09-05T13:11:23.795Z,101972.59
2023-09-05T13:13:51.897Z,101962.94
2023-09-05T13:16:19.667Z,101966.16
2023-09-05T13:18:48.752Z,101969.41
2023-09-05T13:21:16.661Z,101959.72
2023-09-05T13:23:44.534Z,101962.19
2023-09-05T13:26:12.412Z,101955.72
2023-09-05T13:28:40.209Z,101952.53
2023-09-05T13:31:08.054Z,101947.69
2023-09-05T13:33:35.959Z,101949.31
2023-09-05T13:36:05.495Z,101938.00
2023-09-05T13:38:33.341Z,101937.19
2023-09-05T13:41:01.256Z,101932.78
2023-09-05T13:43:29.071Z,101930.81
2023-09-05T13:45:56.890Z,101931.63
2023-09-05T13:48:24.764Z,101925.97
2023-09-05T13:50:52.450Z,101927.22
2023-09-05T13:53:21.740Z,101930.03
2023-09-05T13:55:49.554Z,101932.47
2023-09-05T13:58:17.505Z,101927.28
2023-09-05T14:00:45.273Z,101924.81
2023-09-05T14:03:13.228Z,101918.00
2023-09-05T14:05:41.587Z,101918.00
2023-09-05T14:08:09.682Z,101907.50
2023-09-05T14:10:38.827Z,101907.50
2023-09-05T14:13:06.676Z,101903.47
2023-09-05T14:15:34.528Z,101903.47
2023-09-05T14:18:02.447Z,101910.75
2023-09-05T14:20:30.193Z,101897.44
2023-09-05T14:22:57.996Z,101907.50
2023-09-05T14:25:25.808Z,101903.47
2023-09-05T14:27:55.086Z,101900.66
2023-09-05T14:30:22.828Z,101902.66
2023-09-05T14:32:50.802Z,101899.44
2023-09-05T14:35:18.511Z,101893.81
2023-09-05T14:37:46.201Z,101899.44
2023-09-05T14:40:14.351Z,101887.41
2023-09-05T14:42:42.183Z,101883.78
2023-09-05T14:45:12.325Z,101893.06
2023-09-05T14:47:40.563Z,101883.38
2023-09-05T14:50:08.896Z,101879.34
2023-09-05T14:52:37.710Z,101872.06
2023-09-05T14:55:08.541Z,101876.09
2023-09-05T14:57:36.369Z,101874.09
2023-09-05T15:00:04.806Z,101868.06
2023-09-05T15:02:33.979Z,101870.06
2023-09-05T15:05:01.790Z,101857.56
2023-09-05T15:07:29.473Z,101872.50
2023-09-05T15:09:57.334Z,101868.06
2023-09-05T15:12:25.135Z,101872.06
2023-09-05T15:14:52.911Z,101860.78
2023-09-05T15:17:20.643Z,101866.44
2023-09-05T15:19:50.051Z,101873.69
2023-09-05T15:22:17.987Z,101865.22
2023-09-05T15:24:45.860Z,101865.22
2023-09-05T15:27:14.534Z,101863.22
2023-09-05T15:29:42.388Z,101869.69
2023-09-05T15:32:10.929Z,101861.19
2023-09-05T15:34:38.729Z,101858.38
2023-09-05T15:37:07.955Z,101861.19
2023-09-05T15:39:35.748Z,101851.53
2023-09-05T15:42:03.566Z,101847.53
2023-09-05T15:44:32.968Z,101854.34
2023-09-05T15:47:01.270Z,101839.03
2023-09-05T15:49:29.232Z,101844.69
2023-09-05T15:51:57.065Z,101848.69
2023-09-05T15:54:31.497Z,101853.53
2023-09-05T15:56:59.447Z,101858.38
2023-09-05T15:59:28.475Z,101864.03
2023-09-05T16:01:56.732Z,101858.38
2023-09-05T16:04:24.642Z,101857.56
2023-09-05T16:06:52.483Z,101848.69
2023-09-05T16:09:21.399Z,101854.34
2023-09-05T16:11:51.320Z,101854.34
2023-09-05T16:14:19.080Z,101841.41
2023-09-05T16:16:46.893Z,101835.75
2023-09-05T16:19:16.735Z,101837.78
2023-09-05T16:21:45.862Z,101839.78
2023-09-05T16:24:13.680Z,101834.13
2023-09-05T16:26:42.616Z,101838.16
2023-09-05T16:29:12.186Z,101834.53
2023-09-05T16:31:40.067Z,101842.22
2023-09-05T16:34:08.396Z,101843.44
2023-09-05T16:36:37.320Z,101848.28
2023-09-05T16:39:05.351Z,101840.59
2023-09-05T16:41:33.336Z,101835.75
2023-09-05T16:44:02.400Z,101838.97
2023-09-05T16:46:32.081Z,101831.31
2023-09-05T16:48:59.871Z,101834.13
2023-09-05T16:51:27.928Z,101826.47
2023-09-05T16:53:55.931Z,101824.47
2023-09-05T16:56:23.615Z,101831.31
2023-09-05T16:58:51.414Z,101834.13
2023-09-05T17:01:19.341Z,101823.66
2023-09-05T17:03:48.663Z,101828.50
2023-09-05T17:06:17.775Z,101829.28
2023-09-05T17:08:45.706Z,101830.50
2023-09-05T17:11:13.812Z,101828.50
2023-09-05T17:13:42.018Z,101827.66
2023-09-05T17:16:09.872Z,101822.03
2023-09-05T17:18:38.955Z,101826.88
2023-09-05T17:21:08.157Z,101825.66
2023-09-05T17:23:37.886Z,101830.13
2023-09-05T17:26:05.653Z,101825.66
2023-09-05T17:28:33.815Z,101823.66
2023-09-05T17:31:01.710Z,101830.13
2023-09-05T17:33:30.111Z,101828.50
2023-09-05T17:35:58.859Z,101832.50
2023-09-05T17:38:28.117Z,101839.78
2023-09-05T17:40:56.356Z,101838.59
2023-09-05T17:43:24.049Z,101834.13
2023-09-05T17:45:51.954Z,101839.78
2023-09-05T17:48:20.427Z,101837.38
2023-09-05T17:50:55.367Z,101839.41
2023-09-05T17:53:23.234Z,101835.75
2023-09-05T17:55:52.625Z,101839.78
2023-09-05T17:58:20.642Z,101836.97
2023-09-05T18:00:48.512Z,101846.25
2023-09-05T18:03:16.376Z,101843.03
2023-09-05T18:05:48.265Z,101835.75
2023-09-05T18:08:16.381Z,101849.91
2023-09-05T18:10:44.768Z,101846.25
2023-09-05T18:13:14.241Z,101847.53
2023-09-05T18:15:42.472Z,101848.00
2023-09-05T18:18:11.163Z,101845.22
2023-09-05T18:20:41.366Z,101862.50
2023-09-05T18:23:09.144Z,101866.09
2023-09-05T18:25:36.866Z,101865.28
2023-09-05T18:28:04.897Z,101867.34
2023-09-05T18:30:34.084Z,101871.38
2023-09-05T18:33:01.861Z,101870.56
2023-09-05T18:35:29.650Z,101866.91
2023-09-05T18:38:00.813Z,101859.25
2023-09-05T18:40:28.648Z,101854.34
2023-09-05T18:42:56.435Z,101857.63
2023-09-05T18:45:25.441Z,101871.38
2023-09-05T18:47:54.909Z,101867.72
2023-09-05T18:50:22.758Z,101873.00
2023-09-05T18:52:51.934Z,101869.34
2023-09-05T18:55:19.872Z,101869.34
2023-09-05T18:57:47.677Z,101872.19
2023-09-05T19:00:15.892Z,101873.81
2023-09-05T19:02:43.715Z,101877.84
2023-09-05T19:05:16.165Z,101878.66
2023-09-05T19:07:43.970Z,101873.78
2023-09-05T19:10:11.687Z,101871.38
2023-09-05T19:12:39.440Z,101877.09
2023-09-05T19:15:08.787Z,101881.97
2023-09-05T19:17:36.630Z,101879.13
2023-09-05T19:20:04.925Z,101882.25
2023-09-05T19:22:34.231Z,101884.25
2023-09-05T19:25:02.354Z,101885.06
2023-09-05T19:27:30.286Z,101885.06
2023-09-05T19:29:58.171Z,101880.22
2023-09-05T19:32:26.130Z,101874.59
2023-09-05T19:34:53.927Z,101884.69
2023-09-05T19:37:21.702Z,101888.25
2023-09-05T19:39:51.095Z,101882.59
2023-09-05T19:42:19.548Z,101885.44
2023-09-05T19:44:47.443Z,101888.25
2023-09-05T19:47:15.258Z,101889.91
2023-09-05T19:49:42.978Z,101906.88
2023-09-05T19:52:10.890Z,101904.47
2023-09-05T19:54:38.721Z,101904.38
2023-09-05T19:57:08.419Z,101902.56
2023-09-05T19:59:36.276Z,101901.59
2023-09-05T20:02:04.681Z,101906.00
2023-09-05T20:04:33.372Z,101901.03
2023-09-05T20:07:01.438Z,101910.25
2023-09-05T20:09:29.740Z,101898.16
2023-09-05T20:11:57.715Z,101898.09
2023-09-05T20:14:27.200Z,101908.13
2023-09-05T20:16:55.170Z,101910.16
2023-09-05T20:19:23.410Z,101903.59
2023-09-05T20:21:51.466Z,101905.09
2023-09-05T20:24:19.864Z,101894.97
2023-09-05T20:26:47.891Z,101891.69
2023-09-05T20:29:17.409Z,101893.63
2023-09-05T20:31:47.212Z,101897.66
2023-09-05T20:34:15.049Z,101900.03
2023-09-05T20:36:44.520Z,101890.75
2023-09-05T20:39:13.398Z,101901.59
2023-09-05T20:41:41.708Z,101897.44
2023-09-05T20:44:09.617Z,101896.19
2023-09-05T20:46:37.569Z,101904.28
2023-09-05T20:49:07.315Z,101893.38
2023-09-05T20:51:35.830Z,101899.75
2023-09-05T20:54:04.806Z,101900.34
2023-09-05T20:56:33.175Z,101894.25
2023-09-05T20:59:01.175Z,101895.13
2023-09-05T21:01:30.195Z,101897.19
2023-09-05T21:03:58.315Z,101900.47
2023-09-05T21:06:27.701Z,101896.13
2023-09-05T21:08:55.496Z,101894.22
2023-09-05T21:11:23.498Z,101895.06
2023-09-05T21:13:51.380Z,101889.88
2023-09-05T21:16:19.335Z,101890.28
2023-09-05T21:18:47.808Z,101895.94
2023-09-05T21:21:15.611Z,101897.56
2023-09-05T21:23:44.786Z,101890.75
2023-09-05T21:26:12.913Z,101898.38
2023-09-05T21:28:41.000Z,101895.22
2023-09-05T21:31:09.107Z,101898.47
2023-09-05T21:33:37.326Z,101898.47
2023-09-05T21:36:05.738Z,101904.53
2023-09-05T21:38:33.976Z,101907.38
2023-09-05T21:41:03.456Z,101902.56
2023-09-05T21:43:31.552Z,101902.56
2023-09-05T21:46:00.154Z,101909.03
2023-09-05T21:48:29.644Z,101905.41
2023-09-05T21:51:25.878Z,101897.75
2023-09-05T21:53:53.885Z,101907.03
2023-09-05T21:56:23.129Z,101903.41
2023-09-05T21:58:51.249Z,101904.69
2023-09-05T22:01:19.195Z,101906.69
2023-09-05T22:03:48.386Z,101907.44
2023-09-05T22:06:16.533Z,101905.63
2023-09-05T22:08:44.364Z,101908.03
2023-09-05T22:11:12.409Z,101906.44
2023-09-05T22:13:41.841Z,101906.38
2023-09-05T22:16:10.602Z,101908.38
2023-09-05T22:18:41.983Z,101910.47
2023-09-05T22:21:10.280Z,101913.34
2023-09-05T22:23:38.008Z,101912.97
2023-09-05T22:26:06.383Z,101910.84
2023-09-05T22:28:34.634Z,101915.47
2023-09-05T22:31:04.944Z,101915.28
2023-09-05T22:33:33.557Z,101916.19
2023-09-05T22:36:01.433Z,101921.84
2023-09-05T22:38:29.987Z,101928.84
2023-09-05T22:40:58.020Z,101923.19
2023-09-05T22:43:25.889Z,101928.97
2023-09-05T22:45:53.858Z,101923.78
2023-09-05T22:48:22.968Z,101921.44
2023-09-05T22:50:51.935Z,101922.88
2023-09-05T22:53:19.701Z,101912.59
2023-09-05T22:55:48.496Z,101916.22
2023-09-05T22:58:16.495Z,101913.03
2023-09-05T23:18:44.564Z,101910.56
2023-09-05T23:21:12.669Z,101907.06
2023-09-05T23:23:40.727Z,101910.00
2023-09-05T23:26:10.225Z,101907.06
2023-09-05T23:28:38.557Z,101899.63
2023-09-05T23:31:07.216Z,101899.09
2023-09-05T23:33:35.419Z,101895.78
2023-09-05T23:36:05.162Z,101898.50
2023-09-05T23:38:32.906Z,101889.91
2023-09-05T23:41:00.666Z,101893.97
2023-09-05T23:43:31.573Z,101897.53
2023-09-05T23:45:59.329Z,101892.00
2023-09-05T23:48:27.963Z,101892.78
2023-09-05T23:50:56.698Z,101891.16
2023-09-05T23:53:25.839Z,101880.59
2023-09-05T23:55:53.639Z,101890.69
2023-09-05T23:58:23.376Z,101889.66
